Time;durP1;ratioP1;P1;durP2;ratioP2;P2;SDS_P1;SDS_P2;PMS_P1;PMS_P2;Temp;Humidity;BMP_temperature;BMP_pressure;BME280_temperature;BME280_humidity;BME280_pressure;Samples;Min_cycle;Max_cycle;Signal;HPM_P1;HPM_P2
2021/12/10 00:01:33;;;;;;;5.85;3.00;;;;;;;2.53;70.85;98265.91;5001092;28;20522;-88
2021/12/10 00:04:01;;;;;;;3.13;2.40;;;;;;;2.47;71.14;98257.63;5001183;28;20215;-90
2021/12/10 00:06:37;;;;;;;3.45;2.55;;;;;;;2.39;71.13;98258.84;5002303;28;20613;-89
2021/12/10 00:09:15;;;;;;;5.03;3.00;;;;;;;2.38;71.28;98251.19;4990586;28;21230;-90
2021/12/10 00:11:51;;;;;;;6.15;2.58;;;;;;;2.37;71.38;98241.72;5002476;28;20209;-88
2021/12/10 00:14:19;;;;;;;4.75;2.83;;;;;;;2.36;71.26;98233.09;5001362;28;20282;-88
2021/12/10 00:16:45;;;;;;;7.22;3.47;;;;;;;2.35;71.47;98230.59;5001433;28;20616;-89
2021/12/10 00:21:46;;;;;;;8.77;5.85;;;;;;;2.28;71.64;98224.91;5002599;28;20206;-87
2021/12/10 00:24:12;;;;;;;14.50;7.30;;;;;;;2.19;71.70;98215.03;5004388;28;20324;-88
2021/12/10 00:26:39;;;;;;;11.90;6.20;;;;;;;2.09;72.26;98196.53;4997962;28;20504;-89
2021/12/10 00:29:06;;;;;;;7.20;4.80;;;;;;;1.93;72.27;98186.09;5001688;28;21258;-88
2021/12/10 00:34:28;;;;;;;5.22;4.70;;;;;;;1.66;73.09;98170.22;5001368;28;20604;-89
2021/12/10 00:36:58;;;;;;;4.72;2.55;;;;;;;1.63;73.27;98172.16;5002040;28;20202;-88
2021/12/10 00:39:28;;;;;;;4.20;3.22;;;;;;;1.51;73.60;98158.91;5002870;28;20242;-89
2021/12/10 00:41:55;;;;;;;4.55;2.95;;;;;;;1.38;73.82;98147.50;5003957;28;20691;-89
2021/12/10 00:44:21;;;;;;;3.00;2.20;;;;;;;1.31;74.03;98140.94;5009562;28;20285;-89
2021/12/10 00:46:47;;;;;;;7.43;2.00;;;;;;;1.31;74.25;98138.34;5014507;28;20242;-88
2021/12/10 00:49:13;;;;;;;6.55;3.05;;;;;;;1.28;74.37;98128.16;5013086;28;20195;-90
2021/12/10 00:51:40;;;;;;;6.13;3.33;;;;;;;1.21;74.46;98122.44;5013696;28;20215;-89
2021/12/10 00:54:08;;;;;;;6.65;3.47;;;;;;;1.18;74.90;98114.00;4997262;28;20534;-89
2021/12/10 00:56:33;;;;;;;4.80;2.55;;;;;;;1.14;75.00;98108.16;5014179;28;20237;-88
2021/12/10 00:58:59;;;;;;;2.90;1.93;;;;;;;1.11;75.10;98092.81;5003947;28;20577;-88
2021/12/10 01:01:29;;;;;;;4.47;1.80;;;;;;;1.07;75.28;98075.75;5003005;28;20305;-88
2021/12/10 01:04:07;;;;;;;1.38;1.27;;;;;;;1.03;75.24;98069.91;5003643;28;20207;-88
2021/12/10 01:06:33;;;;;;;3.13;1.70;;;;;;;1.01;75.70;98060.56;5001031;28;20238;-89
2021/12/10 01:09:05;;;;;;;4.50;1.80;;;;;;;1.04;75.89;98057.81;5000067;28;20210;-89
2021/12/10 01:11:35;;;;;;;6.57;4.15;;;;;;;1.05;75.93;98041.38;5001079;28;20461;-87
2021/12/10 01:14:18;;;;;;;3.08;2.65;;;;;;;1.01;75.88;98040.69;4999527;28;20400;-88
2021/12/10 01:25:09;;;;;;;2.97;2.10;;;;;;;0.91;76.04;98023.97;4999198;28;21043;-88
2021/12/10 01:27:40;;;;;;;4.90;2.40;;;;;;;0.82;76.39;98030.44;4998470;28;20602;-90
2021/12/10 01:30:26;;;;;;;7.30;2.00;;;;;;;0.82;76.42;98014.09;4999631;28;20206;-89
2021/12/10 01:32:57;;;;;;;4.13;2.25;;;;;;;0.78;76.60;98015.97;4999593;28;20212;-89
2021/12/10 01:35:28;;;;;;;4.97;2.10;;;;;;;0.75;76.68;98012.72;4999644;28;20282;-88
2021/12/10 01:37:56;;;;;;;3.65;1.50;;;;;;;0.74;76.82;98003.31;4998696;28;20207;-88
2021/12/10 01:40:25;;;;;;;5.30;2.45;;;;;;;0.67;77.00;98005.34;4997136;28;20235;-88
2021/12/10 01:42:53;;;;;;;3.65;1.80;;;;;;;0.56;77.30;98002.44;4997878;28;20338;-87
2021/12/10 01:45:30;;;;;;;3.00;2.22;;;;;;;0.50;77.71;97982.94;5000799;28;20775;-87
2021/12/10 01:48:04;;;;;;;3.03;1.67;;;;;;;0.47;77.90;97990.00;4999712;28;20207;-88
2021/12/10 01:50:34;;;;;;;4.22;2.00;;;;;;;0.52;77.60;97978.53;4999617;28;20462;-88
2021/12/10 01:53:03;;;;;;;3.83;2.20;;;;;;;0.57;77.57;97957.66;4998393;28;20222;-88
2021/12/10 01:55:31;;;;;;;4.68;1.67;;;;;;;0.60;77.25;97947.97;4998848;28;20679;-88
2021/12/10 01:57:58;;;;;;;4.45;1.75;;;;;;;0.56;77.22;97927.53;4997716;28;20289;-88
2021/12/10 02:00:30;;;;;;;2.13;1.88;;;;;;;0.50;77.44;97915.75;4998882;28;20318;-88
2021/12/10 02:02:55;;;;;;;4.20;2.17;;;;;;;0.42;77.73;97902.41;4997700;28;20664;-87
2021/12/10 02:05:21;;;;;;;3.73;1.80;;;;;;;0.35;78.21;97894.13;4998275;28;20214;-89
2021/12/10 02:07:48;;;;;;;2.92;2.50;;;;;;;0.29;78.08;97889.25;4995130;28;20246;-90
2021/12/10 02:10:20;;;;;;;4.90;1.98;;;;;;;0.27;78.33;97874.75;4999018;28;20240;-88
2021/12/10 02:12:46;;;;;;;2.20;2.00;;;;;;;0.27;78.37;97870.44;4997506;28;20656;-90
2021/12/10 02:15:14;;;;;;;6.95;2.30;;;;;;;0.32;78.22;97865.84;4998648;28;20229;-89
2021/12/10 02:17:48;;;;;;;1.92;1.52;;;;;;;0.37;78.14;97863.03;4985587;28;20677;-88
2021/12/10 02:20:22;;;;;;;7.32;1.92;;;;;;;0.42;78.09;97845.56;4998535;28;20529;-88
2021/12/10 02:22:48;;;;;;;3.17;1.75;;;;;;;0.49;78.03;97840.91;4998668;28;20268;-88
2021/12/10 02:25:16;;;;;;;6.85;1.92;;;;;;;0.56;78.07;97827.59;4997725;28;20338;-89
2021/12/10 02:27:42;;;;;;;3.30;1.85;;;;;;;0.62;78.08;97823.88;4998180;28;20289;-90
2021/12/10 02:30:11;;;;;;;4.63;2.10;;;;;;;0.68;77.51;97812.41;4998930;28;21040;-87
2021/12/10 02:32:36;;;;;;;5.68;2.13;;;;;;;0.72;77.79;97804.41;4998714;28;20289;-88
2021/12/10 02:35:05;;;;;;;2.50;1.70;;;;;;;0.77;77.81;97806.75;4998786;28;20278;-88
2021/12/10 02:37:31;;;;;;;3.25;2.42;;;;;;;0.81;77.77;97805.66;4998142;28;20270;-88
2021/12/10 02:39:57;;;;;;;7.63;2.43;;;;;;;0.81;77.70;97800.47;4998984;28;20513;-88
2021/12/10 02:42:22;;;;;;;4.40;1.80;;;;;;;0.81;77.60;97791.00;4998316;28;20254;-87
2021/12/10 02:44:48;;;;;;;1.70;1.60;;;;;;;0.79;77.99;97786.84;4997396;28;20206;-89
2021/12/10 02:47:14;;;;;;;5.80;2.00;;;;;;;0.78;78.14;97785.97;4998465;28;20219;-87
2021/12/10 02:49:40;;;;;;;2.72;1.63;;;;;;;0.78;77.76;97785.97;4998895;28;20206;-87
2021/12/10 02:52:10;;;;;;;2.55;2.28;;;;;;;0.72;77.63;97775.13;5000581;28;20218;-88
2021/12/10 02:54:38;;;;;;;6.32;1.73;;;;;;;0.68;78.04;97771.06;4997245;28;20245;-88
2021/12/10 02:57:08;;;;;;;9.77;1.63;;;;;;;0.66;78.22;97759.03;5001504;28;20835;-88
2021/12/10 02:59:36;;;;;;;4.53;1.50;;;;;;;0.65;78.02;97752.22;5002849;28;20227;-88
2021/12/10 03:02:05;;;;;;;3.97;1.95;;;;;;;0.60;78.00;97749.03;5004814;28;20645;-88
2021/12/10 03:04:32;;;;;;;1.40;1.27;;;;;;;0.55;78.18;97740.69;5002982;28;20241;-89
2021/12/10 03:07:02;;;;;;;1.92;1.40;;;;;;;0.55;78.40;97745.03;5002608;28;20245;-88
2021/12/10 03:09:28;;;;;;;1.52;1.42;;;;;;;0.54;78.11;97744.22;5005857;28;20210;-90
2021/12/10 03:11:58;;;;;;;1.90;1.40;;;;;;;0.51;78.16;97739.19;5006448;28;20277;-88
2021/12/10 03:14:28;;;;;;;2.20;1.40;;;;;;;0.53;78.41;97733.94;5005338;28;20465;-89
2021/12/10 03:16:56;;;;;;;3.20;1.48;;;;;;;0.55;78.62;97726.97;5004138;28;20199;-88
2021/12/10 03:19:21;;;;;;;3.95;1.50;;;;;;;0.56;78.71;97726.84;5005536;28;20222;-88
2021/12/10 03:21:49;;;;;;;1.70;1.50;;;;;;;0.57;78.57;97725.97;5005706;28;20214;-88
2021/12/10 03:24:16;;;;;;;4.45;1.90;;;;;;;0.56;78.59;97718.28;5006650;28;20218;-89
2021/12/10 03:26:43;;;;;;;2.25;2.05;;;;;;;0.49;78.53;97720.38;4987720;28;20235;-88
2021/12/10 03:29:09;;;;;;;3.30;1.80;;;;;;;0.49;78.58;97719.50;5005813;28;20302;-88
2021/12/10 03:31:35;;;;;;;2.83;1.80;;;;;;;0.46;78.71;97710.19;4994200;28;20261;-88
2021/12/10 03:34:04;;;;;;;2.40;1.60;;;;;;;0.40;78.65;97700.19;5019632;28;20207;-89
2021/12/10 03:36:31;;;;;;;1.73;1.40;;;;;;;0.32;78.95;97690.25;5005768;28;20955;-88
2021/12/10 03:38:57;;;;;;;2.58;1.80;;;;;;;0.29;78.63;97689.59;4988855;28;20701;-88
2021/12/10 03:41:22;;;;;;;3.57;1.90;;;;;;;0.29;78.97;97693.00;5005248;28;21097;-89
2021/12/10 03:43:50;;;;;;;4.30;1.70;;;;;;;0.32;79.12;97697.16;5005208;28;20807;-88
2021/12/10 03:46:19;;;;;;;2.40;1.88;;;;;;;0.33;79.01;97686.78;5005553;28;20211;-88
2021/12/10 03:48:45;;;;;;;1.60;1.48;;;;;;;0.37;78.74;97690.84;5006532;28;20215;-88
2021/12/10 03:51:16;;;;;;;2.15;1.30;;;;;;;0.39;78.89;97694.19;5012856;28;20221;-89
2021/12/10 03:53:42;;;;;;;2.67;1.60;;;;;;;0.41;79.01;97689.78;5008992;28;20313;-88
2021/12/10 03:56:16;;;;;;;1.75;1.58;;;;;;;0.37;78.98;97697.75;4985999;28;20269;-89
2021/12/10 03:58:43;;;;;;;6.72;1.35;;;;;;;0.31;79.03;97692.94;4994678;28;20211;-89
2021/12/10 04:01:14;;;;;;;2.15;2.05;;;;;;;0.28;79.08;97683.59;5003867;28;20261;-88
2021/12/10 04:03:41;;;;;;;1.98;1.40;;;;;;;0.25;79.34;97688.09;5001813;28;20443;-88
2021/12/10 04:06:07;;;;;;;1.70;1.60;;;;;;;0.25;79.61;97690.69;5003063;28;20203;-90
2021/12/10 04:08:34;;;;;;;2.10;1.47;;;;;;;0.26;79.33;97666.50;5004345;28;20205;-88
2021/12/10 04:10:59;;;;;;;2.92;1.90;;;;;;;0.27;79.27;97668.16;4970078;28;20210;-88
2021/12/10 04:13:25;;;;;;;2.30;1.60;;;;;;;0.30;79.22;97655.94;5004415;28;20211;-88
2021/12/10 04:15:51;;;;;;;2.70;1.45;;;;;;;0.33;79.42;97652.38;4987826;28;20310;-88
2021/12/10 04:18:17;;;;;;;5.10;1.90;;;;;;;0.38;79.32;97647.78;5013805;28;20475;-89
2021/12/10 04:20:44;;;;;;;2.60;1.92;;;;;;;0.43;79.27;97640.59;4999789;28;20693;-87
2021/12/10 04:23:16;;;;;;;2.70;2.10;;;;;;;0.44;79.05;97637.94;5017294;28;20214;-88
2021/12/10 04:25:43;;;;;;;1.27;1.00;;;;;;;0.50;79.24;97629.03;5008266;28;20211;-88
2021/12/10 04:28:15;;;;;;;5.60;2.10;;;;;;;0.53;78.99;97626.28;5018947;28;20301;-88
2021/12/10 04:30:42;;;;;;;3.95;1.70;;;;;;;0.57;79.00;97617.47;5005787;28;20927;-88
2021/12/10 04:33:12;;;;;;;3.83;2.42;;;;;;;0.56;78.69;97609.78;5003140;28;20400;-89
2021/12/10 04:35:38;;;;;;;4.47;1.98;;;;;;;0.53;78.91;97605.63;4985216;28;20206;-88
2021/12/10 04:38:05;;;;;;;3.15;1.45;;;;;;;0.54;78.90;97596.97;5002042;28;20214;-88
2021/12/10 04:40:34;;;;;;;5.40;1.95;;;;;;;0.55;78.66;97588.28;5003084;28;20231;-89
2021/12/10 04:43:05;;;;;;;1.92;1.83;;;;;;;0.54;78.96;97568.56;5006063;28;20251;-88
2021/12/10 04:45:31;;;;;;;4.10;2.42;;;;;;;0.53;78.87;97579.78;5002687;28;20209;-88
2021/12/10 04:47:56;;;;;;;5.93;3.93;;;;;;;0.52;78.74;97578.13;5001795;28;20203;-87
2021/12/10 04:50:26;;;;;;;9.13;2.80;;;;;;;0.50;78.65;97572.22;5003108;28;20207;-88
2021/12/10 04:52:52;;;;;;;5.35;3.30;;;;;;;0.50;79.22;97567.03;5000593;28;20233;-88
2021/12/10 04:55:20;;;;;;;6.10;4.63;;;;;;;0.52;78.93;97554.06;5000364;28;20210;-89
2021/12/10 04:58:04;;;;;;;3.90;2.60;;;;;;;0.54;78.87;97549.59;5002191;28;20272;-89
2021/12/10 05:00:37;;;;;;;4.57;2.78;;;;;;;0.58;79.00;97539.03;4999857;28;20556;-88
2021/12/10 05:03:05;;;;;;;5.22;2.75;;;;;;;0.57;78.93;97532.22;5015999;28;20294;-89
2021/12/10 05:05:35;;;;;;;5.28;3.15;;;;;;;0.57;79.16;97527.03;5001203;28;20282;-88
2021/12/10 05:08:00;;;;;;;2.33;2.13;;;;;;;0.54;79.08;97508.28;5016961;28;20309;-88
2021/12/10 05:10:26;;;;;;;3.10;2.17;;;;;;;0.53;79.00;97498.88;5017263;28;20652;-88
2021/12/10 05:12:52;;;;;;;3.70;3.35;;;;;;;0.47;79.18;97491.47;5003155;28;20206;-89
2021/12/10 05:15:23;;;;;;;4.53;2.80;;;;;;;0.41;79.44;97485.75;4999122;28;20211;-88
2021/12/10 05:17:51;;;;;;;5.93;2.85;;;;;;;0.40;79.55;97467.75;5000491;28;20655;-87
2021/12/10 05:20:22;;;;;;;4.78;2.33;;;;;;;0.39;79.55;97455.75;4999730;28;20300;-89
2021/12/10 05:22:50;;;;;;;6.30;2.15;;;;;;;0.39;79.76;97454.00;4999461;28;20211;-89
2021/12/10 05:25:16;;;;;;;6.90;3.55;;;;;;;0.40;79.42;97444.50;4999840;28;20214;-88
2021/12/10 05:27:44;;;;;;;3.38;3.08;;;;;;;0.41;79.47;97436.69;5000207;28;20722;-89
2021/12/10 05:30:15;;;;;;;5.10;3.40;;;;;;;0.42;79.35;97432.34;5031190;28;20195;-89
2021/12/10 05:32:40;;;;;;;9.15;4.80;;;;;;;0.45;79.51;97432.16;5004856;28;20253;-89
2021/12/10 05:35:06;;;;;;;7.13;3.67;;;;;;;0.46;79.57;97417.50;5000246;28;20215;-89
2021/12/10 05:37:33;;;;;;;5.60;3.20;;;;;;;0.46;79.75;97417.50;5000377;28;20544;-88
2021/12/10 05:39:58;;;;;;;7.03;2.45;;;;;;;0.47;79.60;97412.25;5000871;28;20477;-89
2021/12/10 05:42:24;;;;;;;6.60;2.73;;;;;;;0.43;79.82;97403.00;4999275;28;20238;-90
2021/12/10 05:44:53;;;;;;;6.20;3.42;;;;;;;0.41;79.80;97384.19;4981245;28;20637;-86
2021/12/10 05:47:19;;;;;;;6.80;4.03;;;;;;;0.40;79.80;97385.94;5000254;28;20210;-89
2021/12/10 05:49:48;;;;;;;5.00;4.30;;;;;;;0.38;79.68;97385.22;5000269;28;20214;-87
2021/12/10 05:52:14;;;;;;;3.83;3.42;;;;;;;0.36;79.97;97387.03;4999456;28;20238;-88
2021/12/10 05:54:40;;;;;;;6.15;3.30;;;;;;;0.39;79.70;97376.53;4981640;28;20722;-86
2021/12/10 05:57:06;;;;;;;18.67;9.57;;;;;;;0.44;79.81;97369.34;4999014;28;20211;-87
2021/12/10 05:59:32;;;;;;;34.23;12.43;;;;;;;0.48;79.69;97367.41;4982715;28;20231;-87
2021/12/10 06:01:58;;;;;;;22.53;13.73;;;;;;;0.50;79.78;97357.00;4999344;28;20453;-88
2021/12/10 06:04:27;;;;;;;21.50;10.15;;;;;;;0.51;79.74;97350.91;4999302;28;20236;-87
2021/12/10 06:06:54;;;;;;;5.55;4.70;;;;;;;0.51;79.73;97338.81;4999540;28;20281;-87
2021/12/10 06:09:20;;;;;;;5.40;3.85;;;;;;;0.44;79.66;97334.94;4982089;28;20851;-88
2021/12/10 06:11:45;;;;;;;6.80;3.87;;;;;;;0.40;79.92;97336.03;4998323;28;21092;-88
2021/12/10 06:14:11;;;;;;;2.93;2.63;;;;;;;0.36;79.97;97330.22;4998153;28;20854;-86
2021/12/10 06:16:37;;;;;;;5.27;2.50;;;;;;;0.33;80.22;97327.00;4998713;28;20230;-87
2021/12/10 06:19:04;;;;;;;2.63;2.40;;;;;;;0.30;80.02;97324.59;4997510;28;20206;-87
2021/12/10 06:21:33;;;;;;;3.08;2.70;;;;;;;0.25;80.24;97326.63;4986686;28;20542;-86
2021/12/10 06:24:00;;;;;;;5.80;2.97;;;;;;;0.19;80.54;97323.47;4979114;28;20213;-86
2021/12/10 06:26:26;;;;;;;4.57;3.38;;;;;;;0.19;80.37;97326.06;4978667;28;20313;-86
2021/12/10 06:28:52;;;;;;;4.57;3.63;;;;;;;0.24;80.28;97325.78;4995559;28;20206;-86
2021/12/10 06:31:20;;;;;;;7.18;3.60;;;;;;;0.25;80.60;97321.47;4996795;28;20462;-85
2021/12/10 06:33:46;;;;;;;52.58;9.00;;;;;;;0.25;80.67;97319.72;4996271;28;20206;-87
2021/12/10 06:36:13;;;;;;;4.20;3.63;;;;;;;0.26;80.49;97315.38;4996583;28;20203;-86
2021/12/10 06:38:39;;;;;;;3.67;2.70;;;;;;;0.26;80.60;97317.94;4998168;28;20489;-87
2021/12/10 06:41:05;;;;;;;4.03;2.73;;;;;;;0.28;80.80;97321.28;4997339;28;20361;-85
2021/12/10 06:43:31;;;;;;;5.60;2.90;;;;;;;0.27;80.59;97314.44;4996383;28;20267;-86
2021/12/10 06:45:57;;;;;;;4.27;2.73;;;;;;;0.27;80.64;97327.34;4999763;28;20238;-86
2021/12/10 06:48:28;;;;;;;2.30;2.10;;;;;;;0.28;80.37;97326.44;5003977;28;20242;-86
2021/12/10 06:51:01;;;;;;;3.20;2.35;;;;;;;0.28;80.52;97327.28;5004285;28;20249;-86
2021/12/10 06:53:55;;;;;;;3.47;2.60;;;;;;;0.32;80.64;97333.06;4997003;28;20203;-88
2021/12/10 06:56:23;;;;;;;5.15;2.55;;;;;;;0.38;80.23;97351.63;5003313;28;20264;-86
2021/12/10 06:58:51;;;;;;;2.03;1.70;;;;;;;0.43;80.01;97351.34;4996159;28;20199;-86
2021/12/10 07:01:24;;;;;;;2.88;2.20;;;;;;;0.48;79.59;97357.06;4997650;28;20486;-86
2021/12/10 07:03:52;;;;;;;2.97;2.60;;;;;;;0.54;79.36;97376.53;4987365;28;20203;-86
2021/12/10 07:06:18;;;;;;;4.93;3.70;;;;;;;0.60;79.29;97369.28;4996989;28;20732;-87
2021/12/10 07:08:46;;;;;;;6.15;4.20;;;;;;;0.64;78.62;97373.31;4996977;28;20230;-86
2021/12/10 07:11:15;;;;;;;5.50;3.42;;;;;;;0.71;78.41;97384.16;4997466;28;20676;-86
2021/12/10 07:13:46;;;;;;;4.07;3.05;;;;;;;0.75;77.90;97418.38;4996624;28;20249;-87
2021/12/10 07:16:13;;;;;;;3.03;2.83;;;;;;;0.80;77.74;97411.19;4996614;28;20218;-88
2021/12/10 07:18:39;;;;;;;6.20;3.47;;;;;;;0.83;77.50;97413.59;4997876;28;20221;-87
2021/12/10 07:21:06;;;;;;;5.32;3.90;;;;;;;0.85;77.70;97416.91;4997228;28;20218;-88
2021/12/10 07:23:32;;;;;;;7.05;5.22;;;;;;;0.86;78.18;97405.66;4996881;28;20209;-89
2021/12/10 07:26:06;;;;;;;7.65;4.60;;;;;;;0.86;79.31;97410.81;4997495;28;20206;-88
2021/12/10 07:28:32;;;;;;;5.40;4.47;;;;;;;0.87;79.42;97404.75;4997156;28;20473;-87
2021/12/10 07:31:50;;;;;;;10.30;4.93;;;;;;;0.88;79.49;97408.97;4997348;28;20890;-87
2021/12/10 07:34:25;;;;;;;5.35;4.43;;;;;;;0.87;79.86;97399.56;5008268;28;20243;-88
2021/12/10 07:36:51;;;;;;;6.10;3.20;;;;;;;0.90;79.94;97396.81;4991910;28;20230;-87
2021/12/10 07:39:16;;;;;;;3.97;3.37;;;;;;;0.90;80.38;97399.38;4998731;28;20269;-88
2021/12/10 07:41:42;;;;;;;6.40;3.87;;;;;;;0.89;80.85;97395.13;5001557;28;20238;-89
2021/12/10 07:44:09;;;;;;;9.43;4.00;;;;;;;0.85;81.35;97398.81;5000632;28;20226;-88
2021/12/10 07:46:35;;;;;;;3.83;3.53;;;;;;;0.82;82.32;97383.50;5002256;28;20472;-88
2021/12/10 07:49:02;;;;;;;5.35;3.80;;;;;;;0.74;82.96;97377.97;4983819;28;20203;-89
2021/12/10 07:51:30;;;;;;;5.32;3.75;;;;;;;0.71;83.36;97375.56;5000811;28;20207;-88
2021/12/10 07:53:57;;;;;;;4.63;4.07;;;;;;;0.66;83.74;97363.75;4984530;28;20215;-88
2021/12/10 07:56:28;;;;;;;5.78;3.40;;;;;;;0.59;84.60;97367.59;4989502;28;20195;-88
2021/12/10 07:58:55;;;;;;;3.05;2.75;;;;;;;0.58;84.74;97360.78;5001033;28;20621;-90
2021/12/10 08:01:25;;;;;;;3.75;3.00;;;;;;;0.54;84.96;97361.91;5003350;28;20225;-88
2021/12/10 08:03:52;;;;;;;4.32;3.90;;;;;;;0.54;85.30;97359.31;5008555;28;20191;-89
2021/12/10 08:06:20;;;;;;;6.88;3.25;;;;;;;0.56;85.21;97347.13;4994359;28;20260;-89
2021/12/10 08:08:47;;;;;;;4.30;3.28;;;;;;;0.58;85.21;97345.28;5006521;28;20195;-88
2021/12/10 08:11:13;;;;;;;4.82;3.83;;;;;;;0.61;85.32;97339.09;4989240;28;20298;-89
2021/12/10 08:13:39;;;;;;;5.27;3.97;;;;;;;0.64;85.19;97333.75;5014467;28;20621;-89
2021/12/10 08:16:11;;;;;;;4.00;3.37;;;;;;;0.69;85.03;97336.91;4983565;28;20508;-89
2021/12/10 08:18:37;;;;;;;3.53;2.70;;;;;;;0.72;84.92;97316.03;4983328;28;20458;-90
2021/12/10 08:21:05;;;;;;;3.65;3.10;;;;;;;0.75;84.92;97320.19;5001850;28;20219;-88
2021/12/10 08:23:31;;;;;;;6.93;3.85;;;;;;;0.78;85.28;97326.00;4995388;28;20203;-89
2021/12/10 08:25:57;;;;;;;7.75;3.55;;;;;;;0.83;85.17;97317.97;4999989;28;20248;-88
2021/12/10 08:28:26;;;;;;;5.90;3.23;;;;;;;0.84;85.23;97310.13;5000040;28;20226;-91
2021/12/10 08:30:53;;;;;;;4.43;3.40;;;;;;;0.87;85.18;97309.13;4989848;28;20549;-90
2021/12/10 08:33:20;;;;;;;8.13;4.30;;;;;;;0.91;85.33;97304.59;5000245;28;20636;-89
2021/12/10 08:35:51;;;;;;;6.95;3.78;;;;;;;0.94;85.11;97302.63;5000610;28;20215;-89
2021/12/10 08:38:17;;;;;;;5.38;3.90;;;;;;;0.97;84.76;97305.03;4999883;28;20963;-88
2021/12/10 08:40:54;;;;;;;7.87;6.27;;;;;;;1.00;85.02;97299.69;4996788;28;20325;-89
2021/12/10 08:43:21;;;;;;;9.02;4.18;;;;;;;1.03;85.02;97294.31;4995052;28;20231;-88
2021/12/10 08:45:46;;;;;;;11.27;10.18;;;;;;;0.98;86.02;97287.78;4999952;28;20207;-88
2021/12/10 08:48:12;;;;;;;10.60;7.80;;;;;;;0.95;85.82;97291.38;5000657;28;20218;-88
2021/12/10 08:50:40;;;;;;;8.80;6.40;;;;;;;0.95;85.58;97290.56;4999679;28;20687;-88
2021/12/10 08:53:12;;;;;;;5.97;5.50;;;;;;;0.98;85.93;97280.03;4998249;28;20226;-88
2021/12/10 08:55:40;;;;;;;6.40;4.97;;;;;;;0.97;85.96;97281.75;4999387;28;20211;-88
2021/12/10 08:58:06;;;;;;;4.90;4.50;;;;;;;0.97;86.40;97284.34;4997452;28;20626;-88
2021/12/10 09:00:33;;;;;;;5.30;4.32;;;;;;;0.99;86.14;97289.44;4998908;28;20214;-88
2021/12/10 09:02:59;;;;;;;5.18;4.68;;;;;;;1.03;85.80;97278.81;4999650;28;20276;-88
2021/12/10 09:05:27;;;;;;;10.27;5.03;;;;;;;1.07;86.08;97274.28;4999327;28;20214;-89
2021/12/10 09:07:54;;;;;;;7.43;4.75;;;;;;;1.07;85.89;97272.50;5000337;28;20392;-88
2021/12/10 09:10:27;;;;;;;6.10;4.35;;;;;;;1.07;85.80;97275.09;5014065;28;20199;-88
2021/12/10 09:12:53;;;;;;;5.45;4.45;;;;;;;1.07;85.71;97258.75;4996432;28;20261;-86
2021/12/10 09:15:22;;;;;;;6.40;5.53;;;;;;;1.09;85.88;97259.50;4997868;28;20215;-89
2021/12/10 09:17:49;;;;;;;7.82;7.03;;;;;;;1.10;85.98;97261.16;4996874;28;20480;-89
2021/12/10 09:20:25;;;;;;;8.35;6.53;;;;;;;1.13;86.08;97262.72;4997422;28;20219;-89
2021/12/10 09:22:50;;;;;;;7.22;6.38;;;;;;;1.18;85.84;97260.66;4997496;28;20648;-88
2021/12/10 09:25:17;;;;;;;7.40;5.50;;;;;;;1.23;85.95;97258.63;4997374;28;20206;-90
2021/12/10 09:27:44;;;;;;;7.70;5.82;;;;;;;1.26;85.43;97259.25;5011105;28;20206;-90
2021/12/10 09:30:13;;;;;;;5.15;4.65;;;;;;;1.30;85.84;97255.56;4997589;28;20199;-89
2021/12/10 09:32:38;;;;;;;6.40;5.07;;;;;;;1.35;85.47;97257.84;4979938;28;20222;-90
2021/12/10 09:35:07;;;;;;;5.97;5.40;;;;;;;1.38;85.37;97252.47;4995476;28;20207;-89
2021/12/10 09:37:35;;;;;;;6.88;6.28;;;;;;;1.41;85.40;97252.28;4970423;28;20353;-89
2021/12/10 09:40:07;;;;;;;9.70;6.53;;;;;;;1.43;85.48;97242.66;4979553;28;20219;-88
2021/12/10 09:42:33;;;;;;;10.05;7.03;;;;;;;1.44;85.35;97235.72;4989170;28;20234;-88
2021/12/10 09:44:59;;;;;;;10.03;5.00;;;;;;;1.41;85.53;97239.34;4996557;28;20541;-89
2021/12/10 09:47:25;;;;;;;6.78;4.85;;;;;;;1.41;85.29;97241.94;4979529;28;20458;-89
2021/12/10 09:49:53;;;;;;;6.83;5.47;;;;;;;1.46;85.56;97233.84;4979316;28;20214;-89
2021/12/10 09:52:23;;;;;;;5.85;5.22;;;;;;;1.49;85.58;97228.50;4996228;28;20462;-89
2021/12/10 09:54:48;;;;;;;6.07;5.45;;;;;;;1.50;85.46;97223.22;4979754;28;20231;-89
2021/12/10 09:57:23;;;;;;;4.03;3.73;;;;;;;1.52;85.37;97223.94;4996918;28;20599;-90
2021/12/10 09:59:51;;;;;;;6.00;4.32;;;;;;;1.57;85.44;97227.97;4997165;28;20219;-88
2021/12/10 10:02:18;;;;;;;9.38;4.80;;;;;;;1.58;85.20;97227.06;4996208;28;20309;-88
2021/12/10 10:04:50;;;;;;;5.38;4.32;;;;;;;1.61;85.38;97222.53;4997611;28;20246;-88
2021/12/10 10:07:28;;;;;;;7.50;5.70;;;;;;;1.61;85.47;97226.88;4996790;28;20227;-89
2021/12/10 10:10:06;;;;;;;11.82;9.32;;;;;;;1.64;85.41;97226.66;4997064;28;20220;-90
2021/12/10 10:12:35;;;;;;;8.75;6.63;;;;;;;1.64;85.38;97222.31;4978216;28;20206;-89
2021/12/10 10:15:06;;;;;;;7.65;5.03;;;;;;;1.63;85.64;97215.50;4997499;28;20214;-88
2021/12/10 10:17:32;;;;;;;6.95;6.25;;;;;;;1.61;85.84;97216.53;4979652;28;20313;-89
2021/12/10 10:19:58;;;;;;;7.22;5.63;;;;;;;1.58;85.79;97220.13;4995868;28;20270;-88
2021/12/10 10:22:29;;;;;;;13.50;9.47;;;;;;;1.59;85.97;97226.13;4995274;28;20260;-88
2021/12/10 10:24:56;;;;;;;11.80;8.77;;;;;;;1.55;86.09;97223.75;4996099;28;20264;-89
2021/12/10 10:27:27;;;;;;;9.60;8.70;;;;;;;1.54;86.17;97223.88;4995578;28;20225;-89
2021/12/10 10:30:01;;;;;;;7.85;6.65;;;;;;;1.51;86.11;97217.13;4978592;28;20207;-89
2021/12/10 10:32:30;;;;;;;22.30;16.15;;;;;;;1.47;86.59;97226.00;4996227;28;20764;-89
2021/12/10 10:35:04;;;;;;;8.32;7.30;;;;;;;1.43;86.58;97234.91;4982604;28;20546;-88
2021/12/10 10:37:31;;;;;;;5.95;5.50;;;;;;;1.38;86.92;97226.63;4996401;28;20221;-88
2021/12/10 10:39:57;;;;;;;7.72;7.05;;;;;;;1.39;86.63;97228.25;4996541;28;20226;-88
2021/12/10 10:42:28;;;;;;;12.23;11.00;;;;;;;1.40;87.02;97232.50;4987248;28;20971;-88
2021/12/10 10:44:59;;;;;;;12.43;10.38;;;;;;;1.45;86.83;97234.78;5015900;28;20827;-89
2021/12/10 10:47:26;;;;;;;9.88;8.88;;;;;;;1.50;87.14;97230.97;5015778;28;20284;-90
2021/12/10 10:49:59;;;;;;;7.57;5.65;;;;;;;1.49;86.82;97239.69;5016066;28;20197;-89
2021/12/10 10:52:29;;;;;;;14.00;9.48;;;;;;;1.51;86.83;97234.38;5029800;28;20366;-89
2021/12/10 10:55:00;;;;;;;11.38;10.27;;;;;;;1.56;86.84;97240.09;5015707;28;20202;-88
2021/12/10 10:57:30;;;;;;;11.32;8.90;;;;;;;1.62;86.49;97238.88;5014134;28;20679;-89
2021/12/10 11:00:09;;;;;;;12.80;8.32;;;;;;;1.67;86.49;97235.03;5015476;28;20239;-89
2021/12/10 11:02:49;;;;;;;11.43;8.45;;;;;;;1.73;86.72;97232.06;4996765;28;20826;-89
2021/12/10 11:05:15;;;;;;;8.77;7.70;;;;;;;1.81;86.55;97239.34;4997420;28;20583;-89
2021/12/10 11:07:49;;;;;;;7.43;4.78;;;;;;;1.89;86.58;97233.63;5015473;28;20222;-88
2021/12/10 11:10:24;;;;;;;2.87;1.93;;;;;;;2.03;86.96;97232.72;4831359;28;5001042;-90
2021/12/10 11:12:52;;;;;;;2.28;1.48;;;;;;;2.21;86.87;97227.16;5017479;28;20220;-89
2021/12/10 11:15:18;;;;;;;1.27;1.17;;;;;;;2.36;86.93;97239.97;5022592;28;20278;-87
2021/12/10 11:17:54;;;;;;;1.27;1.00;;;;;;;2.54;86.42;97230.94;5021732;28;20309;-89
2021/12/10 11:20:42;;;;;;;1.45;1.30;;;;;;;2.67;86.52;97228.31;5021116;28;20229;-89
2021/12/10 11:23:12;;;;;;;1.90;1.00;;;;;;;2.76;86.07;97227.69;5019471;28;20234;-87
2021/12/10 11:25:48;;;;;;;0.90;0.90;;;;;;;2.84;86.22;97229.75;5021387;28;20205;-89
2021/12/10 11:28:27;;;;;;;1.15;1.05;;;;;;;2.88;85.68;97213.84;5026240;28;20576;-89
2021/12/10 11:31:15;;;;;;;1.10;1.00;;;;;;;2.94;85.52;97224.72;5022804;28;20221;-90
2021/12/10 11:33:48;;;;;;;1.40;1.08;;;;;;;2.97;85.59;97227.09;5021399;28;20213;-89
2021/12/10 11:36:24;;;;;;;1.15;0.90;;;;;;;3.00;85.32;97242.44;5022472;28;20190;-89
2021/12/10 11:38:55;;;;;;;1.27;1.02;;;;;;;3.00;85.21;97230.31;5022864;28;20202;-88
2021/12/10 11:41:27;;;;;;;1.90;1.10;;;;;;;3.02;85.34;97248.34;5021068;28;20571;-90
2021/12/10 11:47:02;;;;;;;1.25;1.15;;;;;;;3.05;85.06;97227.38;5001909;28;20230;-90
2021/12/10 11:49:38;;;;;;;1.20;1.10;;;;;;;3.06;85.38;97237.66;5000810;28;20203;-90
2021/12/10 11:52:10;;;;;;;1.42;1.33;;;;;;;3.10;85.15;97243.44;4993854;28;20213;-89
2021/12/10 11:54:54;;;;;;;1.00;1.00;;;;;;;3.12;85.31;97244.16;5002743;28;20221;-91
2021/12/10 11:57:24;;;;;;;1.58;1.00;;;;;;;3.16;85.09;97243.00;5004030;28;20471;-89
2021/12/10 11:59:56;;;;;;;1.85;1.27;;;;;;;3.18;84.81;97238.53;5006845;28;20302;-89
2021/12/10 12:02:23;;;;;;;3.78;1.40;;;;;;;3.21;84.78;97238.31;5005259;28;20230;-89
2021/12/10 12:04:48;;;;;;;1.23;1.13;;;;;;;3.25;84.73;97250.13;5001737;28;20210;-89
2021/12/10 12:07:35;;;;;;;2.43;1.60;;;;;;;3.24;84.76;97253.66;5007165;28;20242;-90